createdAt,value
2023-01-28T00:01:47.662Z,4.76
2023-01-28T00:04:15.379Z,4.84
2023-01-28T00:06:43.043Z,4.88
2023-01-28T00:09:10.736Z,4.92
2023-01-28T00:11:38.117Z,4.96
2023-01-28T00:14:05.442Z,4.95
2023-01-28T00:16:32.883Z,5.02
2023-01-28T00:19:00.289Z,5.02
2023-01-28T00:21:27.623Z,5.10
2023-01-28T00:23:56.477Z,5.10
2023-01-28T00:26:25.428Z,5.19
2023-01-28T00:28:53.141Z,5.22
2023-01-28T00:31:26.327Z,5.09
2023-01-28T00:33:55.341Z,5.17
2023-01-28T00:36:25.109Z,5.09
2023-01-28T00:38:57.573Z,5.39
2023-01-28T00:41:28.251Z,5.47
2023-01-28T00:43:56.208Z,5.35
2023-01-28T00:46:26.557Z,5.39
2023-01-28T00:48:54.162Z,5.34
2023-01-28T00:51:21.740Z,5.23
2023-01-28T00:53:49.934Z,5.16
2023-01-28T00:56:18.040Z,5.17
2023-01-28T00:58:46.094Z,5.32
2023-01-28T01:01:16.484Z,5.10
2023-01-28T01:03:44.189Z,5.01
2023-01-28T01:06:12.812Z,5.35
2023-01-28T01:08:42.961Z,5.21
2023-01-28T01:11:13.637Z,5.06
2023-01-28T01:13:41.717Z,5.03
2023-01-28T01:16:12.075Z,5.09
2023-01-28T01:18:43.327Z,5.09
2023-01-28T01:21:13.913Z,5.20
2023-01-28T01:23:41.722Z,5.08
2023-01-28T01:26:09.838Z,5.21
2023-01-28T01:28:37.865Z,5.16
2023-01-28T01:31:08.439Z,5.26
2023-01-28T01:33:36.069Z,5.20
2023-01-28T01:36:03.785Z,5.24
2023-01-28T01:38:31.313Z,5.27
2023-01-28T01:40:59.850Z,5.31
2023-01-28T01:43:49.661Z,5.15
2023-01-28T01:46:23.249Z,5.05
2023-01-28T01:48:52.093Z,4.91
2023-01-28T01:51:24.596Z,5.06
2023-01-28T01:53:55.091Z,4.99
2023-01-28T01:56:28.583Z,4.93
2023-01-28T01:58:58.217Z,5.02
2023-01-28T02:01:29.405Z,5.03
2023-01-28T02:04:12.915Z,5.19
2023-01-28T02:06:42.153Z,5.22
2023-01-28T02:09:26.252Z,5.09
2023-01-28T02:11:58.096Z,5.17
2023-01-28T02:14:31.915Z,5.06
2023-01-28T02:17:03.122Z,5.01
2023-01-28T02:19:55.140Z,4.99
2023-01-28T02:22:44.534Z,4.91
2023-01-28T02:25:48.858Z,5.07
2023-01-28T02:28:36.174Z,5.13
2023-01-28T02:31:39.965Z,5.02
2023-01-28T02:34:25.411Z,5.03
2023-01-28T02:37:02.943Z,5.04
2023-01-28T02:39:36.288Z,4.92
2023-01-28T02:42:09.989Z,4.76
2023-01-28T02:44:39.749Z,4.88
2023-01-28T02:47:32.732Z,4.99
2023-01-28T02:50:04.833Z,5.09
2023-01-28T02:53:09.637Z,4.93
2023-01-28T02:56:01.945Z,4.89
2023-01-28T02:58:55.525Z,5.02
2023-01-28T03:01:39.356Z,4.89
2023-01-28T03:04:55.992Z,4.93
2023-01-28T03:07:25.450Z,5.08
2023-01-28T03:09:54.205Z,5.10
2023-01-28T03:12:48.394Z,4.82
2023-01-28T03:15:47.927Z,4.92
2023-01-28T03:18:41.837Z,4.91
2023-01-28T03:21:36.771Z,4.86
2023-01-28T03:24:30.797Z,4.89
2023-01-28T03:27:29.106Z,4.99
2023-01-28T03:30:27.336Z,4.83
2023-01-28T03:33:15.579Z,4.74
2023-01-28T03:36:02.007Z,4.68
2023-01-28T03:38:34.081Z,4.57
2023-01-28T03:41:04.226Z,4.71
2023-01-28T03:43:32.582Z,4.80
2023-01-28T03:46:00.470Z,4.65
2023-01-28T03:48:29.041Z,4.58
2023-01-28T03:50:57.595Z,4.50
2023-01-28T03:53:28.315Z,4.36
2023-01-28T03:55:57.397Z,4.37
2023-01-28T03:58:27.271Z,4.32
2023-01-28T04:00:55.083Z,4.33
2023-01-28T04:03:22.609Z,4.30
2023-01-28T04:06:03.646Z,4.29
2023-01-28T04:08:59.612Z,4.33
2023-01-28T04:11:30.127Z,4.39
2023-01-28T04:13:59.143Z,4.34
2023-01-28T04:16:29.223Z,4.27
2023-01-28T04:18:58.069Z,4.15
2023-01-28T04:21:25.600Z,4.32
2023-01-28T04:23:53.037Z,4.35
2023-01-28T04:26:20.391Z,4.36
2023-01-28T04:28:47.943Z,4.41
2023-01-28T04:31:15.381Z,4.27
2023-01-28T04:33:42.778Z,4.23
2023-01-28T04:36:21.263Z,4.29
2023-01-28T04:39:20.870Z,4.29
2023-01-28T04:42:06.871Z,4.22
2023-01-28T04:44:57.266Z,4.23
2023-01-28T04:47:53.949Z,4.06
2023-01-28T04:50:31.303Z,3.92
2023-01-28T04:53:20.656Z,3.89
2023-01-28T04:55:58.905Z,4.01
2023-01-28T04:58:29.886Z,3.96
2023-01-28T05:01:01.963Z,4.24
2023-01-28T05:03:30.200Z,4.13
2023-01-28T05:05:57.782Z,4.12
2023-01-28T05:08:36.193Z,4.06
2023-01-28T05:11:03.981Z,3.96
2023-01-28T05:13:31.423Z,3.91
2023-01-28T05:15:59.041Z,3.95
2023-01-28T05:18:26.537Z,4.08
2023-01-28T05:21:15.245Z,4.11
2023-01-28T05:23:44.195Z,4.08
2023-01-28T05:26:11.565Z,4.09
2023-01-28T05:28:39.317Z,4.00
2023-01-28T05:31:08.685Z,4.05
2023-01-28T05:33:36.246Z,3.99
2023-01-28T05:36:06.356Z,3.86
2023-01-28T05:38:34.187Z,3.65
2023-01-28T05:41:01.712Z,3.79
2023-01-28T05:43:29.483Z,3.92
2023-01-28T05:46:16.423Z,3.77
2023-01-28T05:49:12.293Z,3.80
2023-01-28T05:51:55.369Z,3.93
2023-01-28T05:54:23.490Z,3.79
2023-01-28T05:56:50.820Z,3.77
2023-01-28T05:59:18.455Z,3.66
2023-01-28T06:01:48.345Z,3.76
2023-01-28T06:04:18.915Z,3.56
2023-01-28T06:06:47.645Z,3.58
2023-01-28T06:09:16.003Z,3.66
2023-01-28T06:11:44.449Z,3.53
2023-01-28T06:14:11.917Z,3.60
2023-01-28T06:16:57.751Z,3.61
2023-01-28T06:19:25.046Z,3.53
2023-01-28T06:21:52.283Z,3.46
2023-01-28T06:24:20.614Z,3.38
2023-01-28T06:26:48.160Z,3.26
2023-01-28T06:29:16.042Z,3.17
2023-01-28T06:31:43.601Z,3.22
2023-01-28T06:34:11.150Z,3.34
2023-01-28T06:36:38.423Z,3.22
2023-01-28T06:39:05.702Z,3.31
2023-01-28T06:41:32.862Z,3.20
2023-01-28T06:44:00.122Z,3.31
2023-01-28T06:46:27.501Z,3.40
2023-01-28T06:48:54.899Z,3.36
2023-01-28T06:51:22.281Z,3.47
2023-01-28T06:53:49.740Z,3.47
2023-01-28T06:56:17.061Z,3.45
2023-01-28T06:58:44.330Z,3.38
2023-01-28T07:01:11.789Z,3.41
2023-01-28T07:03:39.182Z,3.41
2023-01-28T07:06:06.780Z,3.20
2023-01-28T07:08:34.612Z,3.14
2023-01-28T07:11:02.130Z,3.24
2023-01-28T07:13:29.589Z,3.13
2023-01-28T07:15:57.011Z,3.14
2023-01-28T07:18:24.445Z,3.47
2023-01-28T07:20:51.679Z,3.71
2023-01-28T07:23:19.143Z,3.75
2023-01-28T07:25:46.503Z,3.79
2023-01-28T07:28:14.372Z,3.71
2023-01-28T07:30:41.684Z,3.50
2023-01-28T07:33:10.843Z,3.57
2023-01-28T07:35:38.408Z,3.61
2023-01-28T07:38:05.767Z,3.63
2023-01-28T07:40:32.947Z,3.83
2023-01-28T07:43:01.109Z,3.80
2023-01-28T07:45:36.913Z,3.89
2023-01-28T07:48:07.491Z,4.04
2023-01-28T07:50:37.327Z,4.10
2023-01-28T07:53:11.455Z,4.14
2023-01-28T07:55:39.570Z,4.16
2023-01-28T07:58:08.578Z,3.94
2023-01-28T08:00:37.629Z,4.11
2023-01-28T08:03:16.090Z,4.39
2023-01-28T08:05:49.619Z,5.00
2023-01-28T08:08:17.416Z,5.41
2023-01-28T08:10:46.269Z,5.91
2023-01-28T08:13:15.781Z,6.22
2023-01-28T08:15:44.168Z,6.10
2023-01-28T08:18:13.660Z,6.00
2023-01-28T08:20:43.667Z,5.93
2023-01-28T08:23:19.422Z,5.69
2023-01-28T08:25:47.853Z,5.30
2023-01-28T08:28:16.802Z,5.25
2023-01-28T08:30:45.162Z,5.10
2023-01-28T08:33:14.960Z,4.85
2023-01-28T08:35:42.733Z,4.86
2023-01-28T08:38:12.470Z,4.87
2023-01-28T08:40:40.147Z,4.98
2023-01-28T08:43:07.704Z,4.92
2023-01-28T08:45:35.111Z,4.82
2023-01-28T08:48:06.564Z,5.40
2023-01-28T08:50:38.734Z,6.28
2023-01-28T08:53:15.803Z,7.14
2023-01-28T08:55:44.114Z,7.89
2023-01-28T08:58:14.245Z,8.56
2023-01-28T09:00:42.300Z,9.18
2023-01-28T09:03:10.071Z,9.83
2023-01-28T09:05:38.473Z,10.18
2023-01-28T09:08:11.498Z,10.52
2023-01-28T09:10:39.781Z,10.53
2023-01-28T09:13:09.812Z,10.45
2023-01-28T09:15:37.941Z,10.42
2023-01-28T09:18:06.327Z,10.68
2023-01-28T09:20:34.622Z,10.86
2023-01-28T09:23:02.785Z,11.06
2023-01-28T09:25:30.755Z,11.24
2023-01-28T09:27:58.535Z,11.22
2023-01-28T09:30:26.634Z,11.40
2023-01-28T09:32:55.367Z,11.62
2023-01-28T09:35:23.671Z,11.57
2023-01-28T09:37:52.173Z,10.99
2023-01-28T09:40:33.056Z,10.50
2023-01-28T09:43:19.089Z,9.95
2023-01-28T09:45:49.188Z,10.37
2023-01-28T09:48:21.852Z,10.60
2023-01-28T09:50:53.059Z,10.91
2023-01-28T09:53:50.574Z,10.87
2023-01-28T09:56:40.035Z,10.65
2023-01-28T09:59:22.017Z,10.47
2023-01-28T10:02:19.169Z,10.60
2023-01-28T10:05:14.734Z,10.90
2023-01-28T10:07:57.732Z,10.85
2023-01-28T10:10:41.014Z,9.87
2023-01-28T10:13:39.936Z,9.73
2023-01-28T10:16:24.565Z,9.60
2023-01-28T10:19:06.002Z,9.59
2023-01-28T10:21:52.061Z,8.87
2023-01-28T10:24:36.044Z,8.40
2023-01-28T10:27:11.104Z,8.13
2023-01-28T10:29:40.000Z,8.04
2023-01-28T10:32:34.948Z,7.95
2023-01-28T10:35:03.636Z,7.84
2023-01-28T10:37:35.029Z,7.65
2023-01-28T10:40:04.213Z,7.59
2023-01-28T10:42:38.941Z,7.60
2023-01-28T10:45:10.403Z,7.45
2023-01-28T10:47:54.756Z,7.35
2023-01-28T10:50:25.220Z,7.12
2023-01-28T10:52:58.541Z,6.97
2023-01-28T10:55:30.853Z,6.82
2023-01-28T10:57:59.473Z,6.84
2023-01-28T11:00:33.112Z,6.51
2023-01-28T11:03:00.643Z,6.58
2023-01-28T11:05:29.675Z,6.67
2023-01-28T11:08:15.615Z,6.76
2023-01-28T11:10:44.585Z,6.78
2023-01-28T11:13:18.662Z,6.81
2023-01-28T11:15:49.332Z,6.89
2023-01-28T11:18:25.086Z,6.85
2023-01-28T11:20:57.158Z,6.85
2023-01-28T11:23:59.577Z,6.67
2023-01-28T11:26:35.019Z,6.75
2023-01-28T11:29:02.737Z,6.90
2023-01-28T11:31:43.071Z,7.05
2023-01-28T11:34:16.122Z,7.20
2023-01-28T11:37:13.880Z,7.04
2023-01-28T11:39:41.756Z,6.80
2023-01-28T11:42:17.750Z,6.74
2023-01-28T11:44:46.803Z,6.73
2023-01-28T11:47:20.498Z,6.62
2023-01-28T11:50:00.696Z,6.72
2023-01-28T11:53:06.407Z,6.71
2023-01-28T11:55:42.032Z,6.75
2023-01-28T11:58:24.152Z,6.62
2023-01-28T12:01:22.917Z,6.62
2023-01-28T12:04:15.022Z,6.62
2023-01-28T12:07:41.232Z,6.59
2023-01-28T12:10:25.683Z,6.62
2023-01-28T12:13:05.889Z,6.61
2023-01-28T12:15:33.414Z,6.44
2023-01-28T12:18:06.869Z,6.44
2023-01-28T12:20:53.083Z,6.40
2023-01-28T12:24:04.087Z,6.11
2023-01-28T12:26:31.688Z,6.31
2023-01-28T12:29:08.912Z,6.42
2023-01-28T12:31:48.146Z,6.49
2023-01-28T12:34:55.351Z,6.64
2023-01-28T12:38:10.709Z,6.79
2023-01-28T12:40:43.848Z,7.19
2023-01-28T12:43:29.643Z,7.42
2023-01-28T12:46:12.893Z,7.43
2023-01-28T12:48:47.929Z,7.34
2023-01-28T12:51:25.234Z,7.12
2023-01-28T12:54:01.406Z,6.94
2023-01-28T12:56:34.621Z,6.69
2023-01-28T12:59:25.702Z,6.60
2023-01-28T13:02:01.613Z,6.66
2023-01-28T13:04:42.658Z,6.72
2023-01-28T13:07:39.671Z,6.69
2023-01-28T13:10:13.538Z,6.65
2023-01-28T13:12:41.939Z,6.57
2023-01-28T13:15:18.423Z,6.54
2023-01-28T13:17:59.954Z,6.29
2023-01-28T13:20:46.389Z,6.32
2023-01-28T13:23:26.063Z,6.22
2023-01-28T13:25:55.692Z,6.30
2023-01-28T13:28:32.417Z,6.41
2023-01-28T13:31:09.553Z,6.52
2023-01-28T13:33:39.816Z,6.61
2023-01-28T13:36:45.484Z,6.73
2023-01-28T13:39:22.677Z,6.67
2023-01-28T13:42:09.947Z,6.71
2023-01-28T13:44:38.159Z,6.72
2023-01-28T13:47:08.531Z,6.78
2023-01-28T13:49:47.150Z,6.45
2023-01-28T13:52:14.566Z,6.67
2023-01-28T13:54:48.125Z,6.83
2023-01-28T13:57:57.785Z,6.88
2023-01-28T14:00:42.620Z,6.84
2023-01-28T14:03:37.387Z,6.89
2023-01-28T14:06:29.803Z,6.97
2023-01-28T14:09:21.386Z,6.82
2023-01-28T14:12:33.673Z,6.77
2023-01-28T14:15:25.527Z,6.80
2023-01-28T14:17:56.206Z,6.73
2023-01-28T14:20:32.803Z,6.61
2023-01-28T14:23:06.784Z,6.65
2023-01-28T14:25:50.556Z,6.55
2023-01-28T14:28:31.289Z,6.62
2023-01-28T14:31:09.322Z,6.64
2023-01-28T14:33:38.155Z,6.61
2023-01-28T14:36:06.013Z,6.45
2023-01-28T14:38:39.873Z,6.52
2023-01-28T14:41:09.011Z,6.53
2023-01-28T14:43:40.035Z,6.55
2023-01-28T14:46:35.035Z,6.64
2023-01-28T14:49:40.771Z,6.66
2023-01-28T14:52:54.880Z,6.79
2023-01-28T14:55:45.638Z,6.80
2023-01-28T14:58:18.701Z,6.83
2023-01-28T15:00:55.561Z,6.79
2023-01-28T15:03:25.298Z,6.89
2023-01-28T15:06:13.085Z,6.78
2023-01-28T15:08:40.873Z,6.76
2023-01-28T15:11:16.766Z,6.74
2023-01-28T15:13:47.692Z,6.81
2023-01-28T15:16:24.774Z,6.87
2023-01-28T15:18:53.195Z,6.74
2023-01-28T15:21:25.923Z,6.78
2023-01-28T15:23:56.833Z,6.76
2023-01-28T15:26:35.038Z,6.67
2023-01-28T15:29:02.687Z,6.55
2023-01-28T15:31:39.079Z,6.57
2023-01-28T15:34:18.830Z,6.51
2023-01-28T15:36:49.682Z,6.49
2023-01-28T15:39:20.938Z,6.54
2023-01-28T15:42:01.627Z,6.43
2023-01-28T15:44:39.027Z,6.39
2023-01-28T15:47:23.485Z,6.41
2023-01-28T15:49:54.375Z,6.30
2023-01-28T15:52:29.573Z,6.43
2023-01-28T15:54:58.013Z,6.46
2023-01-28T15:57:31.148Z,6.46
2023-01-28T16:00:13.385Z,6.41
2023-01-28T16:02:46.295Z,6.50
2023-01-28T16:05:37.355Z,6.52
2023-01-28T16:08:12.125Z,6.56
2023-01-28T16:10:39.773Z,6.55
2023-01-28T16:13:17.108Z,6.57
2023-01-28T16:15:52.809Z,6.52
2023-01-28T16:18:26.829Z,6.62
2023-01-28T16:20:54.562Z,6.50
2023-01-28T16:23:29.073Z,6.45
2023-01-28T16:26:04.791Z,6.35
2023-01-28T16:28:33.129Z,6.31
2023-01-28T16:31:00.845Z,6.29
2023-01-28T16:33:28.497Z,6.26
2023-01-28T16:36:07.817Z,6.31
2023-01-28T16:38:36.297Z,6.21
2023-01-28T16:41:03.998Z,6.29
2023-01-28T16:43:31.478Z,6.25
2023-01-28T16:45:58.906Z,6.24
2023-01-28T16:48:26.159Z,6.25
2023-01-28T16:50:53.499Z,6.17
2023-01-28T16:53:23.066Z,6.30
2023-01-28T16:55:51.537Z,6.10
2023-01-28T16:58:24.266Z,6.11
2023-01-28T17:00:51.851Z,6.06
2023-01-28T17:03:20.022Z,6.24
2023-01-28T17:05:47.582Z,6.27
2023-01-28T17:08:15.420Z,6.28
2023-01-28T17:10:43.259Z,6.21
2023-01-28T17:13:10.799Z,6.19
2023-01-28T17:15:38.266Z,6.10
2023-01-28T17:18:05.674Z,6.11
2023-01-28T17:20:37.507Z,6.00
2023-01-28T17:23:07.179Z,6.04
2023-01-28T17:25:41.867Z,6.01
2023-01-28T17:28:10.755Z,5.99
2023-01-28T17:30:42.432Z,6.10
2023-01-28T17:33:10.244Z,6.06
2023-01-28T17:35:37.981Z,6.05
2023-01-28T17:38:06.169Z,6.06
2023-01-28T17:40:33.790Z,6.00
2023-01-28T17:43:01.329Z,6.02
2023-01-28T17:45:31.210Z,6.01
2023-01-28T17:47:58.746Z,6.06
2023-01-28T17:50:26.456Z,5.96
2023-01-28T17:52:57.743Z,6.02
2023-01-28T17:55:25.877Z,5.98
2023-01-28T17:57:53.272Z,5.95
2023-01-28T18:00:21.123Z,5.92
2023-01-28T18:02:52.552Z,6.02
2023-01-28T18:05:21.374Z,6.21
2023-01-28T18:07:50.557Z,6.12
2023-01-28T18:10:18.971Z,6.21
2023-01-28T18:12:46.557Z,6.21
2023-01-28T18:15:14.426Z,6.22
2023-01-28T18:17:42.139Z,6.27
2023-01-28T18:20:10.958Z,6.20
2023-01-28T18:22:38.385Z,6.14
2023-01-28T18:25:05.990Z,6.18
2023-01-28T18:27:33.358Z,6.19
2023-01-28T18:30:00.861Z,6.19
2023-01-28T18:32:28.205Z,6.26
2023-01-28T18:34:55.872Z,6.09
2023-01-28T18:37:23.210Z,6.19
2023-01-28T18:39:50.596Z,6.08
2023-01-28T18:42:18.023Z,6.10
2023-01-28T18:44:45.399Z,6.16
2023-01-28T18:47:12.682Z,6.18
2023-01-28T18:49:43.405Z,6.19
2023-01-28T18:52:11.002Z,6.07
2023-01-28T18:54:38.602Z,6.19
2023-01-28T18:57:06.221Z,6.29
2023-01-28T18:59:33.469Z,6.44
2023-01-28T19:02:01.118Z,6.24
2023-01-28T19:04:28.566Z,6.23
2023-01-28T19:06:57.490Z,6.12
2023-01-28T19:09:24.959Z,6.06
2023-01-28T19:11:52.489Z,6.10
2023-01-28T19:14:19.822Z,6.07
2023-01-28T19:16:47.263Z,6.25
2023-01-28T19:19:14.831Z,6.21
2023-01-28T19:21:42.289Z,6.30
2023-01-28T19:24:11.711Z,6.25
2023-01-28T19:26:39.204Z,6.19
2023-01-28T19:29:07.953Z,6.12
2023-01-28T19:31:36.040Z,6.26
2023-01-28T19:34:04.023Z,6.25
2023-01-28T19:36:33.775Z,6.05
2023-01-28T19:39:08.918Z,6.04
2023-01-28T19:41:36.684Z,6.17
2023-01-28T19:44:05.585Z,6.11
2023-01-28T19:46:34.035Z,6.07
2023-01-28T19:49:01.574Z,5.92
2023-01-28T19:51:29.100Z,5.98
2023-01-28T19:53:56.443Z,6.02
2023-01-28T19:56:27.211Z,5.97
2023-01-28T19:58:55.000Z,6.08
2023-01-28T20:01:27.182Z,6.01
2023-01-28T20:03:59.272Z,6.01
2023-01-28T20:06:29.917Z,6.11
2023-01-28T20:09:00.809Z,6.05
2023-01-28T20:11:29.190Z,6.20
2023-01-28T20:13:56.895Z,6.16
2023-01-28T20:16:26.553Z,6.11
2023-01-28T20:18:59.966Z,6.19
2023-01-28T20:21:29.859Z,6.19
2023-01-28T20:23:59.748Z,6.13
2023-01-28T20:26:36.213Z,6.10
2023-01-28T20:29:17.455Z,5.97
2023-01-28T20:31:45.078Z,6.08
2023-01-28T20:34:18.796Z,6.27
2023-01-28T20:36:46.606Z,6.12
2023-01-28T20:39:16.624Z,6.13
2023-01-28T20:41:44.171Z,6.13
2023-01-28T20:44:11.707Z,5.99
2023-01-28T20:46:39.309Z,5.98
2023-01-28T20:49:06.868Z,5.92
2023-01-28T20:51:35.952Z,6.06
2023-01-28T20:54:04.109Z,5.95
2023-01-28T20:56:31.949Z,5.76
2023-01-28T20:59:02.749Z,5.77
2023-01-28T21:01:34.247Z,5.97
2023-01-28T21:04:02.730Z,5.82
2023-01-28T21:06:30.736Z,5.88
2023-01-28T21:08:58.699Z,5.79
2023-01-28T21:11:27.205Z,5.83
2023-01-28T21:13:55.479Z,5.81
2023-01-28T21:16:23.303Z,5.68
2023-01-28T21:18:50.966Z,5.72
2023-01-28T21:21:24.802Z,5.68
2023-01-28T21:23:56.833Z,5.73
2023-01-28T21:26:24.726Z,5.72
2023-01-28T21:28:52.305Z,5.68
2023-01-28T21:31:28.095Z,5.64
2023-01-28T21:34:04.055Z,5.69
2023-01-28T21:36:34.368Z,5.74
2023-01-28T21:39:03.136Z,5.80
2023-01-28T21:41:31.429Z,5.70
2023-01-28T21:43:59.214Z,5.61
2023-01-28T21:46:29.534Z,5.45
2023-01-28T21:48:59.228Z,5.42
2023-01-28T21:51:36.472Z,5.34
2023-01-28T21:54:04.275Z,5.44
2023-01-28T21:56:31.940Z,5.44
2023-01-28T21:59:17.856Z,5.40
2023-01-28T22:01:46.182Z,5.33
2023-01-28T22:04:14.633Z,5.19
2023-01-28T22:06:42.710Z,5.15
2023-01-28T22:09:14.488Z,5.23
2023-01-28T22:11:43.564Z,5.35
2023-01-28T22:14:12.315Z,5.32
2023-01-28T22:16:40.098Z,5.29
2023-01-28T22:19:08.028Z,5.39
2023-01-28T22:21:41.377Z,5.48
2023-01-28T22:24:17.558Z,5.46
2023-01-28T22:26:46.528Z,5.45
2023-01-28T22:29:15.907Z,5.50
2023-01-28T22:31:46.061Z,5.61
2023-01-28T22:34:13.993Z,5.79
2023-01-28T22:36:41.470Z,5.85
2023-01-28T22:39:13.550Z,5.67
2023-01-28T22:41:42.327Z,5.67
2023-01-28T22:44:10.096Z,5.82
2023-01-28T22:46:37.770Z,5.71
2023-01-28T22:49:05.616Z,5.68
2023-01-28T22:51:35.832Z,5.66
2023-01-28T22:54:04.177Z,5.65
2023-01-28T22:56:32.061Z,6.03
2023-01-28T22:59:02.408Z,5.79
2023-01-28T23:01:30.790Z,5.76
2023-01-28T23:03:58.521Z,5.65
2023-01-28T23:06:28.242Z,5.53
2023-01-28T23:08:56.641Z,5.68
2023-01-28T23:11:25.670Z,5.57
2023-01-28T23:14:17.496Z,5.63
2023-01-28T23:17:04.775Z,5.71
2023-01-28T23:19:51.094Z,5.83
2023-01-28T23:22:51.655Z,5.68
2023-01-28T23:25:20.272Z,5.78
2023-01-28T23:27:47.770Z,5.65
2023-01-28T23:30:16.082Z,5.60
2023-01-28T23:32:47.323Z,5.49
2023-01-28T23:35:15.582Z,5.42
2023-01-28T23:37:43.038Z,5.55
2023-01-28T23:40:11.486Z,5.57
2023-01-28T23:42:39.052Z,5.42
2023-01-28T23:45:07.233Z,5.41
2023-01-28T23:47:34.727Z,5.76
2023-01-28T23:50:02.390Z,5.65
2023-01-28T23:52:29.838Z,5.53
2023-01-28T23:54:57.357Z,5.62
2023-01-28T23:57:24.875Z,5.58
2023-01-28T23:59:52.364Z,5.46
